createdAt,value
2022-10-04T00:01:45.123Z,8.70
2022-10-04T00:04:14.265Z,8.75
2022-10-04T00:06:49.301Z,8.80
2022-10-04T00:09:20.259Z,8.82
2022-10-04T00:11:47.810Z,8.84
2022-10-04T00:14:43.897Z,8.79
2022-10-04T00:17:12.965Z,8.83
2022-10-04T00:19:45.520Z,8.87
2022-10-04T00:22:23.008Z,8.86
2022-10-04T00:25:17.719Z,8.89
2022-10-04T00:28:24.591Z,8.91
2022-10-04T00:31:15.921Z,8.95
2022-10-04T00:33:46.324Z,8.95
2022-10-04T00:36:30.806Z,8.94
2022-10-04T00:39:06.771Z,8.96
2022-10-04T00:41:48.321Z,9.00
2022-10-04T00:45:00.777Z,8.99
2022-10-04T00:47:31.968Z,9.01
2022-10-04T00:50:12.935Z,8.99
2022-10-04T00:52:44.411Z,9.02
2022-10-04T00:55:26.304Z,8.96
2022-10-04T00:57:59.522Z,9.01
2022-10-04T01:00:27.064Z,8.94
2022-10-04T01:03:01.236Z,9.00
2022-10-04T01:05:37.170Z,9.04
2022-10-04T01:08:13.818Z,9.10
2022-10-04T01:11:19.698Z,9.13
2022-10-04T01:13:50.757Z,9.13
2022-10-04T01:16:24.962Z,9.02
2022-10-04T01:18:51.924Z,8.98
2022-10-04T01:21:20.856Z,8.96
2022-10-04T01:23:57.415Z,8.92
2022-10-04T01:26:26.763Z,8.83
2022-10-04T01:28:53.917Z,8.81
2022-10-04T01:31:21.137Z,8.66
2022-10-04T01:33:48.025Z,8.60
2022-10-04T01:36:14.458Z,8.61
2022-10-04T01:38:41.796Z,8.59
2022-10-04T01:41:09.055Z,8.59
2022-10-04T01:43:39.067Z,8.61
2022-10-04T01:46:13.846Z,8.55
2022-10-04T01:48:43.474Z,8.55
2022-10-04T01:51:47.133Z,8.53
2022-10-04T01:54:19.516Z,8.53
2022-10-04T01:56:53.379Z,8.53
2022-10-04T01:59:34.173Z,8.49
2022-10-04T02:02:04.720Z,8.52
2022-10-04T02:04:34.818Z,8.38
2022-10-04T02:07:03.480Z,8.31
2022-10-04T02:09:34.940Z,8.33
2022-10-04T02:12:03.555Z,8.27
2022-10-04T02:14:35.476Z,8.29
2022-10-04T02:17:05.815Z,8.31
2022-10-04T02:19:35.676Z,8.31
2022-10-04T02:22:05.877Z,8.29
2022-10-04T02:24:38.252Z,8.32
2022-10-04T02:27:06.309Z,8.37
2022-10-04T02:29:33.101Z,8.25
2022-10-04T02:32:19.319Z,8.31
2022-10-04T02:34:46.991Z,8.31
2022-10-04T02:37:14.185Z,8.37
2022-10-04T02:39:44.700Z,8.39
2022-10-04T02:42:36.005Z,8.33
2022-10-04T02:45:10.362Z,8.38
2022-10-04T02:47:58.542Z,8.37
2022-10-04T02:50:37.197Z,8.34
2022-10-04T02:53:30.520Z,8.37
2022-10-04T02:55:57.923Z,8.38
2022-10-04T02:58:26.019Z,8.38
2022-10-04T03:01:02.470Z,8.30
2022-10-04T03:03:34.727Z,8.33
2022-10-04T03:06:01.229Z,8.32
2022-10-04T03:08:29.975Z,8.29
2022-10-04T03:10:59.248Z,8.25
2022-10-04T03:13:26.135Z,8.29
2022-10-04T03:15:53.119Z,8.27
2022-10-04T03:18:19.911Z,8.29
2022-10-04T03:20:47.068Z,8.30
2022-10-04T03:23:15.943Z,8.28
2022-10-04T03:25:57.122Z,8.31
2022-10-04T03:28:23.766Z,8.41
2022-10-04T03:30:50.713Z,8.43
2022-10-04T03:33:19.533Z,8.52
2022-10-04T03:35:48.143Z,8.50
2022-10-04T03:38:14.982Z,8.55
2022-10-04T03:40:45.235Z,8.59
2022-10-04T03:43:12.660Z,8.63
2022-10-04T03:45:39.665Z,8.63
2022-10-04T03:48:08.510Z,8.75
2022-10-04T03:50:39.089Z,8.74
2022-10-04T03:53:14.480Z,8.75
2022-10-04T03:55:45.993Z,8.79
2022-10-04T03:58:17.212Z,8.82
2022-10-04T04:00:53.964Z,8.75
2022-10-04T04:03:20.810Z,8.73
2022-10-04T04:05:51.892Z,8.79
2022-10-04T04:08:37.046Z,8.80
2022-10-04T04:11:05.451Z,8.76
2022-10-04T04:13:59.134Z,8.76
2022-10-04T04:16:26.429Z,8.67
2022-10-04T04:18:54.636Z,8.70
2022-10-04T04:21:23.629Z,8.70
2022-10-04T04:23:54.231Z,8.72
2022-10-04T04:26:35.070Z,8.67
2022-10-04T04:29:07.009Z,8.75
2022-10-04T04:31:42.258Z,8.70
2022-10-04T04:34:29.942Z,8.78
2022-10-04T04:37:00.874Z,8.75
2022-10-04T04:39:43.779Z,8.73
2022-10-04T04:42:14.650Z,8.75
2022-10-04T04:44:52.593Z,8.75
2022-10-04T04:47:35.661Z,8.82
2022-10-04T04:50:06.267Z,8.76
2022-10-04T04:52:33.865Z,8.76
2022-10-04T04:55:00.607Z,8.72
2022-10-04T04:57:27.147Z,8.79
2022-10-04T04:59:58.739Z,8.83
2022-10-04T05:02:35.254Z,8.85
2022-10-04T05:05:25.597Z,8.86
2022-10-04T05:08:10.820Z,8.84
2022-10-04T05:10:39.137Z,8.83
2022-10-04T05:13:08.645Z,8.86
2022-10-04T05:15:37.008Z,8.83
2022-10-04T05:18:17.728Z,8.88
2022-10-04T05:20:48.688Z,8.87
2022-10-04T05:23:15.257Z,8.90
2022-10-04T05:25:42.251Z,8.90
2022-10-04T05:28:15.179Z,8.94
2022-10-04T05:30:41.818Z,9.00
2022-10-04T05:33:11.410Z,9.03
2022-10-04T05:36:03.922Z,9.04
2022-10-04T05:38:39.960Z,9.16
2022-10-04T05:41:17.305Z,9.19
2022-10-04T05:43:50.210Z,9.25
2022-10-04T05:46:23.081Z,9.25
2022-10-04T05:48:54.515Z,9.34
2022-10-04T05:51:32.504Z,9.37
2022-10-04T05:54:01.676Z,9.35
2022-10-04T05:56:30.822Z,9.45
2022-10-04T05:59:06.545Z,9.51
2022-10-04T06:01:45.099Z,9.53
2022-10-04T06:04:33.777Z,9.57
2022-10-04T06:07:04.660Z,9.57
2022-10-04T06:10:26.155Z,9.63
2022-10-04T06:13:09.365Z,9.65
2022-10-04T06:16:04.076Z,9.79
2022-10-04T06:19:18.921Z,10.10
2022-10-04T06:21:48.310Z,10.15
2022-10-04T06:24:19.171Z,10.06
2022-10-04T06:26:53.749Z,10.01
2022-10-04T06:29:24.817Z,10.06
2022-10-04T06:32:33.206Z,9.99
2022-10-04T06:35:23.130Z,10.00
2022-10-04T06:37:58.451Z,9.96
2022-10-04T06:40:43.631Z,10.00
2022-10-04T06:43:21.999Z,10.00
2022-10-04T06:46:26.042Z,10.07
2022-10-04T06:49:29.920Z,10.12
2022-10-04T06:52:24.660Z,10.06
2022-10-04T06:55:28.831Z,10.11
2022-10-04T06:58:10.900Z,10.19
2022-10-04T07:00:49.517Z,10.17
2022-10-04T07:03:23.430Z,10.23
2022-10-04T07:05:57.904Z,10.21
2022-10-04T07:08:34.552Z,10.31
2022-10-04T07:11:25.726Z,10.40
2022-10-04T07:14:06.727Z,10.57
2022-10-04T07:16:38.320Z,10.66
2022-10-04T07:19:22.774Z,10.67
2022-10-04T07:22:06.496Z,10.73
2022-10-04T07:24:39.667Z,10.77
2022-10-04T07:27:10.615Z,10.69
2022-10-04T07:29:42.057Z,10.57
2022-10-04T07:32:13.886Z,10.59
2022-10-04T07:34:45.871Z,10.64
2022-10-04T07:37:13.927Z,10.66
2022-10-04T07:39:50.464Z,10.71
2022-10-04T07:42:43.003Z,10.58
2022-10-04T07:45:30.250Z,10.69
2022-10-04T07:48:26.443Z,10.55
2022-10-04T07:51:05.135Z,10.58
2022-10-04T07:53:41.946Z,10.55
2022-10-04T07:56:14.758Z,10.63
2022-10-04T07:59:18.044Z,10.56
2022-10-04T08:02:13.629Z,10.62
2022-10-04T08:04:44.407Z,10.73
2022-10-04T08:07:18.073Z,10.79
2022-10-04T08:10:04.333Z,10.80
2022-10-04T08:13:03.175Z,10.76
2022-10-04T08:15:36.605Z,10.76
2022-10-04T08:18:18.653Z,10.78
2022-10-04T08:21:04.978Z,10.80
2022-10-04T08:24:13.733Z,10.94
2022-10-04T08:27:05.460Z,11.21
2022-10-04T08:29:53.214Z,11.44
2022-10-04T08:32:38.110Z,11.41
2022-10-04T08:35:28.169Z,11.56
2022-10-04T08:38:23.685Z,11.61
2022-10-04T08:40:59.976Z,11.75
2022-10-04T08:43:43.086Z,11.66
2022-10-04T08:46:33.137Z,11.63
2022-10-04T08:49:38.431Z,11.60
2022-10-04T08:52:57.143Z,11.74
2022-10-04T08:55:35.034Z,11.91
2022-10-04T08:58:15.173Z,12.05
2022-10-04T09:00:50.886Z,12.23
2022-10-04T09:03:36.997Z,12.36
2022-10-04T09:06:37.387Z,12.47
2022-10-04T09:09:35.888Z,12.51
2022-10-04T09:12:16.228Z,12.54
2022-10-04T09:14:58.194Z,12.51
2022-10-04T09:17:46.987Z,12.61
2022-10-04T09:20:37.759Z,12.55
2022-10-04T09:23:27.125Z,12.63
2022-10-04T09:26:14.775Z,12.62
2022-10-04T09:29:10.591Z,12.56
2022-10-04T09:32:06.129Z,12.47
2022-10-04T09:34:42.353Z,12.53
2022-10-04T09:37:33.136Z,12.68
2022-10-04T09:40:10.824Z,12.55
2022-10-04T09:43:11.728Z,12.51
2022-10-04T09:46:07.697Z,12.53
2022-10-04T09:49:05.267Z,12.43
2022-10-04T09:52:08.999Z,12.38
2022-10-04T09:54:55.230Z,12.38
2022-10-04T09:57:53.525Z,12.32
2022-10-04T10:00:24.673Z,12.24
2022-10-04T10:03:31.698Z,12.18
2022-10-04T10:06:09.203Z,12.11
2022-10-04T10:08:35.625Z,12.17
2022-10-04T10:11:55.435Z,12.36
2022-10-04T10:15:01.247Z,12.57
2022-10-04T10:17:46.547Z,12.74
2022-10-04T10:20:37.790Z,13.09
2022-10-04T10:23:32.276Z,13.28
2022-10-04T10:26:24.898Z,13.17
2022-10-04T10:29:25.801Z,13.17
2022-10-04T10:32:09.792Z,13.16
2022-10-04T10:35:08.883Z,13.23
2022-10-04T10:38:01.080Z,13.13
2022-10-04T10:41:00.082Z,12.95
2022-10-04T10:43:55.460Z,12.98
2022-10-04T10:46:31.410Z,12.91
2022-10-04T10:49:22.130Z,12.89
2022-10-04T10:52:06.314Z,12.99
2022-10-04T10:54:57.992Z,13.15
2022-10-04T10:57:43.561Z,13.19
2022-10-04T11:00:19.693Z,13.39
2022-10-04T11:03:27.189Z,13.36
2022-10-04T11:06:09.610Z,13.68
2022-10-04T11:08:59.615Z,13.76
2022-10-04T11:11:56.065Z,14.09
2022-10-04T11:14:29.278Z,14.12
2022-10-04T11:17:14.510Z,13.85
2022-10-04T11:19:43.665Z,13.59
2022-10-04T11:22:32.680Z,13.15
2022-10-04T11:25:45.837Z,12.97
2022-10-04T11:28:24.695Z,13.06
2022-10-04T11:31:19.507Z,13.26
2022-10-04T11:34:16.681Z,13.23
2022-10-04T11:36:46.455Z,13.19
2022-10-04T11:39:13.280Z,13.10
2022-10-04T11:41:48.592Z,13.32
2022-10-04T11:44:44.106Z,13.25
2022-10-04T11:47:46.941Z,13.17
2022-10-04T11:50:38.970Z,13.22
2022-10-04T11:53:34.201Z,13.21
2022-10-04T11:56:31.508Z,13.15
2022-10-04T11:59:43.883Z,13.26
2022-10-04T12:02:29.528Z,13.34
2022-10-04T12:05:19.368Z,13.63
2022-10-04T12:07:54.743Z,13.94
2022-10-04T12:10:25.349Z,13.89
2022-10-04T12:13:19.855Z,13.72
2022-10-04T12:16:16.827Z,13.62
2022-10-04T12:19:15.589Z,13.64
2022-10-04T12:22:03.267Z,13.67
2022-10-04T12:25:08.166Z,13.93
2022-10-04T12:27:44.966Z,13.99
2022-10-04T12:30:20.817Z,14.10
2022-10-04T12:32:58.927Z,14.02
2022-10-04T12:35:48.058Z,13.82
2022-10-04T12:38:22.894Z,13.72
2022-10-04T12:40:54.680Z,13.76
2022-10-04T12:43:40.365Z,13.57
2022-10-04T12:46:24.987Z,13.46
2022-10-04T12:49:17.464Z,13.47
2022-10-04T12:51:44.063Z,13.72
2022-10-04T12:54:30.085Z,13.73
2022-10-04T12:57:12.299Z,13.71
2022-10-04T12:59:57.163Z,13.75
2022-10-04T13:02:28.073Z,13.73
2022-10-04T13:05:00.288Z,13.71
2022-10-04T13:07:39.460Z,13.76
2022-10-04T13:10:25.717Z,13.75
2022-10-04T13:13:11.286Z,14.11
2022-10-04T13:18:34.658Z,14.35
2022-10-04T13:21:06.897Z,14.35
2022-10-04T13:23:42.645Z,14.59
2022-10-04T13:26:33.002Z,14.59
2022-10-04T13:29:08.552Z,14.44
2022-10-04T13:31:50.124Z,14.49
2022-10-04T13:34:31.835Z,14.41
2022-10-04T13:37:16.679Z,14.06
2022-10-04T13:40:04.635Z,13.76
2022-10-04T13:42:48.990Z,13.57
2022-10-04T13:45:39.845Z,13.61
2022-10-04T13:48:32.854Z,13.51
2022-10-04T13:51:08.436Z,13.44
2022-10-04T13:54:04.409Z,13.54
2022-10-04T13:56:43.134Z,13.52
2022-10-04T13:59:23.370Z,13.45
2022-10-04T14:02:13.563Z,13.68
2022-10-04T14:05:17.961Z,13.93
2022-10-04T14:07:44.692Z,13.90
2022-10-04T14:10:20.248Z,13.75
2022-10-04T14:12:49.250Z,13.51
2022-10-04T14:15:40.223Z,13.26
2022-10-04T14:18:28.134Z,13.08
2022-10-04T14:20:55.467Z,13.02
2022-10-04T14:23:24.488Z,13.02
2022-10-04T14:26:10.945Z,13.04
2022-10-04T14:29:00.270Z,13.02
2022-10-04T14:32:05.277Z,12.98
2022-10-04T14:34:57.005Z,13.10
2022-10-04T14:37:42.563Z,13.04
2022-10-04T14:40:27.919Z,13.14
2022-10-04T14:43:28.291Z,13.10
2022-10-04T14:46:19.501Z,13.08
2022-10-04T14:48:56.932Z,12.99
2022-10-04T14:52:06.606Z,12.95
2022-10-04T14:54:53.384Z,12.86
2022-10-04T14:57:38.318Z,12.83
2022-10-04T15:00:23.997Z,12.82
2022-10-04T15:03:19.238Z,12.78
2022-10-04T15:06:00.311Z,12.71
2022-10-04T15:08:39.260Z,12.80
2022-10-04T15:12:21.495Z,12.72
2022-10-04T15:14:59.371Z,12.68
2022-10-04T15:17:28.153Z,12.61
2022-10-04T15:20:06.499Z,12.53
2022-10-04T15:22:41.352Z,12.67
2022-10-04T15:25:40.285Z,12.65
2022-10-04T15:28:44.099Z,12.55
2022-10-04T15:31:39.153Z,12.52
2022-10-04T15:34:13.295Z,12.48
2022-10-04T15:36:43.110Z,12.41
2022-10-04T15:39:35.008Z,12.33
2022-10-04T15:42:10.548Z,12.17
2022-10-04T15:45:21.700Z,12.10
2022-10-04T15:48:01.782Z,12.08
2022-10-04T15:50:31.643Z,12.01
2022-10-04T15:53:17.419Z,11.97
2022-10-04T15:56:28.316Z,12.03
2022-10-04T15:59:12.313Z,11.97
2022-10-04T16:01:57.724Z,11.82
2022-10-04T16:04:41.474Z,11.60
2022-10-04T16:07:08.002Z,11.61
2022-10-04T16:09:56.684Z,11.58
2022-10-04T16:12:33.286Z,11.60
2022-10-04T16:15:36.809Z,11.46
2022-10-04T16:18:24.979Z,11.34
2022-10-04T16:21:18.329Z,11.23
2022-10-04T16:23:45.312Z,11.19
2022-10-04T16:26:18.522Z,11.13
2022-10-04T16:29:22.643Z,11.08
2022-10-04T16:31:55.967Z,10.91
2022-10-04T16:34:51.719Z,10.97
2022-10-04T16:37:24.056Z,10.91
2022-10-04T16:40:03.459Z,10.81
2022-10-04T16:42:35.178Z,10.75
2022-10-04T16:45:40.409Z,10.69
2022-10-04T16:48:28.722Z,10.62
2022-10-04T16:51:16.770Z,10.56
2022-10-04T16:54:43.102Z,10.56
2022-10-04T16:57:22.560Z,10.38
2022-10-04T16:59:53.206Z,10.33
2022-10-04T17:02:25.371Z,10.28
2022-10-04T17:05:01.040Z,10.31
2022-10-04T17:08:11.422Z,10.26
2022-10-04T17:11:07.832Z,10.15
2022-10-04T17:13:55.561Z,10.10
2022-10-04T17:16:41.483Z,9.89
2022-10-04T17:19:31.133Z,9.87
2022-10-04T17:22:12.856Z,9.82
2022-10-04T17:24:52.826Z,9.78
2022-10-04T17:27:44.973Z,9.81
2022-10-04T17:30:21.514Z,9.75
2022-10-04T17:33:15.060Z,9.71
2022-10-04T17:36:04.238Z,9.71
2022-10-04T17:39:24.423Z,9.66
2022-10-04T17:42:13.649Z,9.61
2022-10-04T17:45:22.338Z,9.57
2022-10-04T17:48:17.727Z,9.51
2022-10-04T17:51:15.136Z,9.42
2022-10-04T17:54:04.463Z,9.39
2022-10-04T17:56:38.963Z,9.34
2022-10-04T17:59:13.924Z,9.28
2022-10-04T18:01:46.874Z,9.25
2022-10-04T18:04:30.573Z,9.14
2022-10-04T18:07:03.500Z,9.17
2022-10-04T18:09:44.021Z,9.27
2022-10-04T18:12:23.584Z,9.12
2022-10-04T18:14:59.355Z,9.03
2022-10-04T18:17:44.642Z,8.99
2022-10-04T18:20:11.302Z,8.92
2022-10-04T18:22:49.886Z,8.85
2022-10-04T18:25:23.277Z,8.85
2022-10-04T18:28:07.774Z,8.76
2022-10-04T18:30:51.670Z,8.79
2022-10-04T18:33:26.088Z,8.69
2022-10-04T18:36:19.988Z,8.71
2022-10-04T18:39:00.684Z,8.64
2022-10-04T18:41:47.471Z,8.61
2022-10-04T18:44:16.375Z,8.57
2022-10-04T18:46:46.636Z,8.51
2022-10-04T18:49:47.728Z,8.43
2022-10-04T18:52:31.179Z,8.34
2022-10-04T18:55:20.676Z,8.38
2022-10-04T18:58:28.643Z,8.36
2022-10-04T19:01:26.669Z,8.33
2022-10-04T19:03:58.552Z,8.24
2022-10-04T19:06:33.582Z,8.25
2022-10-04T19:09:01.983Z,8.13
2022-10-04T19:11:34.645Z,8.17
2022-10-04T19:14:26.773Z,8.13
2022-10-04T19:17:01.825Z,8.09
2022-10-04T19:19:41.867Z,8.01
2022-10-04T19:22:14.608Z,8.01
2022-10-04T19:25:06.180Z,7.95
2022-10-04T19:27:39.495Z,8.01
2022-10-04T19:30:22.231Z,8.03
2022-10-04T19:33:16.398Z,7.93
2022-10-04T19:36:12.376Z,7.92
2022-10-04T19:39:23.867Z,7.96
2022-10-04T19:42:03.038Z,7.81
2022-10-04T19:44:29.919Z,7.86
2022-10-04T19:47:01.368Z,7.79
2022-10-04T19:49:56.872Z,7.78
2022-10-04T19:52:34.302Z,7.78
2022-10-04T19:55:21.467Z,7.66
2022-10-04T19:57:58.527Z,7.65
2022-10-04T20:00:25.202Z,7.72
2022-10-04T20:02:51.775Z,7.58
2022-10-04T20:05:28.136Z,7.57
2022-10-04T20:08:05.350Z,7.64
2022-10-04T20:10:34.675Z,7.65
2022-10-04T20:13:25.723Z,7.66
2022-10-04T20:15:56.823Z,7.49
2022-10-04T20:18:32.643Z,7.48
2022-10-04T20:21:00.166Z,7.52
2022-10-04T20:23:49.925Z,7.48
2022-10-04T20:26:54.470Z,7.42
2022-10-04T20:29:36.576Z,7.45
2022-10-04T20:32:10.221Z,7.42
2022-10-04T20:34:39.591Z,7.50
2022-10-04T20:37:08.314Z,7.45
2022-10-04T20:39:40.893Z,7.37
2022-10-04T20:42:19.907Z,7.34
2022-10-04T20:44:54.383Z,7.29
2022-10-04T20:47:39.911Z,7.31
2022-10-04T20:50:14.678Z,7.35
2022-10-04T20:52:48.953Z,7.30
2022-10-04T20:55:39.076Z,7.25
2022-10-04T20:58:26.149Z,7.23
2022-10-04T21:00:54.659Z,7.18
2022-10-04T21:03:22.084Z,7.22
2022-10-04T21:06:08.642Z,7.22
2022-10-04T21:08:36.137Z,7.29
2022-10-04T21:11:06.047Z,7.22
2022-10-04T21:13:41.594Z,7.16
2022-10-04T21:16:08.187Z,7.14
2022-10-04T21:18:34.692Z,7.10
2022-10-04T21:21:01.213Z,7.15
2022-10-04T21:23:34.948Z,7.09
2022-10-04T21:26:23.389Z,7.12
2022-10-04T21:28:54.094Z,7.02
2022-10-04T21:31:20.579Z,7.11
2022-10-04T21:33:47.257Z,7.06
2022-10-04T21:36:13.804Z,7.09
2022-10-04T21:38:40.457Z,7.09
2022-10-04T21:41:07.415Z,7.11
2022-10-04T21:43:33.911Z,7.00
2022-10-04T21:46:00.781Z,7.01
2022-10-04T21:48:27.474Z,6.96
2022-10-04T21:50:54.689Z,6.95
2022-10-04T21:53:21.485Z,7.02
2022-10-04T21:55:48.278Z,6.94
2022-10-04T21:58:14.783Z,6.88
2022-10-04T22:00:41.371Z,6.86
2022-10-04T22:03:07.951Z,6.85
2022-10-04T22:05:34.546Z,6.88
2022-10-04T22:08:01.054Z,6.91
2022-10-04T22:10:27.699Z,6.92
2022-10-04T22:12:56.983Z,6.88
2022-10-04T22:15:27.367Z,6.82
2022-10-04T22:17:54.437Z,6.84
2022-10-04T22:20:21.006Z,6.79
2022-10-04T22:22:47.648Z,6.82
2022-10-04T22:25:19.703Z,6.89
2022-10-04T22:27:46.948Z,6.92
2022-10-04T22:30:31.268Z,6.84
2022-10-04T22:32:59.071Z,6.89
2022-10-04T22:35:25.558Z,6.84
2022-10-04T22:37:52.278Z,6.86
2022-10-04T22:40:23.214Z,6.87
2022-10-04T22:42:57.108Z,6.81
2022-10-04T22:45:26.867Z,6.83
2022-10-04T22:47:55.896Z,6.80
2022-10-04T22:50:32.663Z,6.83
2022-10-04T22:53:04.425Z,6.80
2022-10-04T22:55:31.052Z,6.88
2022-10-04T22:57:57.508Z,6.93
2022-10-04T23:00:24.098Z,6.87
2022-10-04T23:02:50.679Z,6.92
2022-10-04T23:05:19.170Z,6.97
2022-10-04T23:07:47.858Z,6.94
2022-10-04T23:10:17.627Z,6.95
2022-10-04T23:12:45.528Z,7.06
2022-10-04T23:15:20.730Z,6.95
2022-10-04T23:17:54.370Z,6.98
2022-10-04T23:20:21.004Z,7.00
2022-10-04T23:22:49.265Z,6.99
2022-10-04T23:25:21.485Z,7.02
2022-10-04T23:27:48.309Z,7.10
2022-10-04T23:30:19.783Z,7.08
2022-10-04T23:32:48.923Z,7.16
2022-10-04T23:35:26.445Z,7.15
2022-10-04T23:37:53.495Z,7.15
2022-10-04T23:40:21.188Z,7.14
2022-10-04T23:42:49.599Z,7.21
2022-10-04T23:45:22.262Z,7.29
2022-10-04T23:47:52.203Z,7.33
2022-10-04T23:50:36.419Z,7.38
2022-10-04T23:53:06.464Z,7.35
2022-10-04T23:55:37.875Z,7.39
2022-10-04T23:58:14.745Z,7.49
